sensor_id;sensor_type;location;lat;lon;timestamp;P1;durP1;ratioP1;P2;durP2;ratioP2
4508;SDS011;2267;48.816;9.230;2022-12-10T00:01:08;31.23;;;28.50;;
4508;SDS011;2267;48.816;9.230;2022-12-10T00:03:37;31.17;;;28.10;;
4508;SDS011;2267;48.816;9.230;2022-12-10T00:06:05;31.17;;;28.37;;
4508;SDS011;2267;48.816;9.230;2022-12-10T00:08:34;28.83;;;26.40;;
4508;SDS011;2267;48.816;9.230;2022-12-10T00:11:04;31.83;;;28.70;;
4508;SDS011;2267;48.816;9.230;2022-12-10T00:13:35;31.30;;;28.57;;
4508;SDS011;2267;48.816;9.230;2022-12-10T00:16:03;32.27;;;29.23;;
4508;SDS011;2267;48.816;9.230;2022-12-10T00:18:33;29.23;;;26.63;;
4508;SDS011;2267;48.816;9.230;2022-12-10T00:21:07;30.90;;;28.10;;
4508;SDS011;2267;48.816;9.230;2022-12-10T00:23:36;26.63;;;24.13;;
4508;SDS011;2267;48.816;9.230;2022-12-10T00:26:04;31.30;;;28.60;;
4508;SDS011;2267;48.816;9.230;2022-12-10T00:28:33;33.33;;;30.10;;
4508;SDS011;2267;48.816;9.230;2022-12-10T00:31:07;31.70;;;28.80;;
4508;SDS011;2267;48.816;9.230;2022-12-10T00:33:39;29.20;;;26.60;;
4508;SDS011;2267;48.816;9.230;2022-12-10T00:36:11;32.40;;;29.50;;
4508;SDS011;2267;48.816;9.230;2022-12-10T00:38:40;30.13;;;27.33;;
4508;SDS011;2267;48.816;9.230;2022-12-10T00:41:10;30.50;;;27.70;;
4508;SDS011;2267;48.816;9.230;2022-12-10T00:43:38;29.10;;;26.47;;
4508;SDS011;2267;48.816;9.230;2022-12-10T00:46:05;30.37;;;27.57;;
4508;SDS011;2267;48.816;9.230;2022-12-10T00:48:32;29.07;;;26.50;;
4508;SDS011;2267;48.816;9.230;2022-12-10T00:53:32;30.80;;;27.90;;
4508;SDS011;2267;48.816;9.230;2022-12-10T00:56:00;29.10;;;26.40;;
4508;SDS011;2267;48.816;9.230;2022-12-10T00:58:30;27.87;;;25.47;;
4508;SDS011;2267;48.816;9.230;2022-12-10T01:01:08;28.30;;;25.80;;
4508;SDS011;2267;48.816;9.230;2022-12-10T01:03:40;29.10;;;26.50;;
4508;SDS011;2267;48.816;9.230;2022-12-10T01:06:17;29.77;;;27.00;;
4508;SDS011;2267;48.816;9.230;2022-12-10T01:08:46;29.27;;;26.77;;
4508;SDS011;2267;48.816;9.230;2022-12-10T01:11:14;26.43;;;24.13;;
4508;SDS011;2267;48.816;9.230;2022-12-10T01:13:43;28.67;;;26.00;;
4508;SDS011;2267;48.816;9.230;2022-12-10T01:16:11;28.03;;;25.60;;
4508;SDS011;2267;48.816;9.230;2022-12-10T01:18:40;29.70;;;27.10;;
4508;SDS011;2267;48.816;9.230;2022-12-10T01:21:08;28.50;;;25.97;;
4508;SDS011;2267;48.816;9.230;2022-12-10T01:23:38;28.50;;;26.17;;
4508;SDS011;2267;48.816;9.230;2022-12-10T01:26:07;29.03;;;26.47;;
4508;SDS011;2267;48.816;9.230;2022-12-10T01:28:37;32.23;;;29.23;;
4508;SDS011;2267;48.816;9.230;2022-12-10T01:31:06;29.73;;;27.13;;
4508;SDS011;2267;48.816;9.230;2022-12-10T01:33:43;28.90;;;26.30;;
4508;SDS011;2267;48.816;9.230;2022-12-10T01:36:23;31.30;;;28.80;;
4508;SDS011;2267;48.816;9.230;2022-12-10T01:38:55;32.43;;;29.40;;
4508;SDS011;2267;48.816;9.230;2022-12-10T01:41:27;29.10;;;26.40;;
4508;SDS011;2267;48.816;9.230;2022-12-10T01:46:44;28.90;;;26.40;;
4508;SDS011;2267;48.816;9.230;2022-12-10T01:49:19;26.97;;;24.47;;
4508;SDS011;2267;48.816;9.230;2022-12-10T01:51:52;30.13;;;27.50;;
4508;SDS011;2267;48.816;9.230;2022-12-10T01:54:25;28.43;;;25.93;;
4508;SDS011;2267;48.816;9.230;2022-12-10T01:56:58;29.87;;;27.03;;
4508;SDS011;2267;48.816;9.230;2022-12-10T01:59:29;26.63;;;24.33;;
4508;SDS011;2267;48.816;9.230;2022-12-10T02:01:59;26.73;;;24.23;;
4508;SDS011;2267;48.816;9.230;2022-12-10T02:07:24;29.63;;;27.00;;
4508;SDS011;2267;48.816;9.230;2022-12-10T02:10:19;29.20;;;26.50;;
4508;SDS011;2267;48.816;9.230;2022-12-10T02:15:34;28.23;;;25.50;;
4508;SDS011;2267;48.816;9.230;2022-12-10T02:18:10;27.43;;;24.93;;
4508;SDS011;2267;48.816;9.230;2022-12-10T02:21:00;27.83;;;25.17;;
4508;SDS011;2267;48.816;9.230;2022-12-10T02:23:37;25.87;;;23.57;;
4508;SDS011;2267;48.816;9.230;2022-12-10T02:31:22;28.30;;;25.70;;
4508;SDS011;2267;48.816;9.230;2022-12-10T02:33:55;27.30;;;24.90;;
4508;SDS011;2267;48.816;9.230;2022-12-10T02:36:25;28.80;;;26.20;;
4508;SDS011;2267;48.816;9.230;2022-12-10T02:39:02;28.90;;;26.10;;
4508;SDS011;2267;48.816;9.230;2022-12-10T02:41:35;26.90;;;24.50;;
4508;SDS011;2267;48.816;9.230;2022-12-10T02:44:07;27.37;;;24.90;;
4508;SDS011;2267;48.816;9.230;2022-12-10T02:46:37;28.13;;;25.43;;
4508;SDS011;2267;48.816;9.230;2022-12-10T02:49:06;29.30;;;26.70;;
4508;SDS011;2267;48.816;9.230;2022-12-10T02:51:34;26.23;;;24.10;;
4508;SDS011;2267;48.816;9.230;2022-12-10T02:54:02;26.53;;;24.20;;
4508;SDS011;2267;48.816;9.230;2022-12-10T02:56:33;27.40;;;25.10;;
4508;SDS011;2267;48.816;9.230;2022-12-10T02:59:23;27.90;;;25.40;;
4508;SDS011;2267;48.816;9.230;2022-12-10T03:02:12;28.37;;;25.83;;
4508;SDS011;2267;48.816;9.230;2022-12-10T03:04:54;27.70;;;25.10;;
4508;SDS011;2267;48.816;9.230;2022-12-10T03:07:55;28.53;;;25.93;;
4508;SDS011;2267;48.816;9.230;2022-12-10T03:10:28;27.57;;;25.17;;
4508;SDS011;2267;48.816;9.230;2022-12-10T03:13:02;28.60;;;26.10;;
4508;SDS011;2267;48.816;9.230;2022-12-10T03:15:33;25.93;;;23.60;;
4508;SDS011;2267;48.816;9.230;2022-12-10T03:18:02;27.37;;;24.87;;
4508;SDS011;2267;48.816;9.230;2022-12-10T03:20:31;27.63;;;25.23;;
4508;SDS011;2267;48.816;9.230;2022-12-10T03:23:00;27.77;;;25.07;;
4508;SDS011;2267;48.816;9.230;2022-12-10T03:25:28;26.37;;;23.97;;
4508;SDS011;2267;48.816;9.230;2022-12-10T03:27:58;25.60;;;23.40;;
4508;SDS011;2267;48.816;9.230;2022-12-10T03:30:26;26.70;;;24.40;;
4508;SDS011;2267;48.816;9.230;2022-12-10T03:32:57;25.37;;;23.17;;
4508;SDS011;2267;48.816;9.230;2022-12-10T03:35:24;29.17;;;26.60;;
4508;SDS011;2267;48.816;9.230;2022-12-10T03:37:51;25.83;;;23.53;;
4508;SDS011;2267;48.816;9.230;2022-12-10T03:40:20;24.90;;;22.70;;
4508;SDS011;2267;48.816;9.230;2022-12-10T03:42:49;26.87;;;24.57;;
4508;SDS011;2267;48.816;9.230;2022-12-10T03:45:16;26.33;;;24.13;;
4508;SDS011;2267;48.816;9.230;2022-12-10T03:47:43;28.27;;;25.77;;
4508;SDS011;2267;48.816;9.230;2022-12-10T03:50:10;24.60;;;22.50;;
4508;SDS011;2267;48.816;9.230;2022-12-10T03:52:37;25.03;;;22.90;;
4508;SDS011;2267;48.816;9.230;2022-12-10T03:55:04;27.17;;;24.87;;
4508;SDS011;2267;48.816;9.230;2022-12-10T03:57:33;25.57;;;23.27;;
4508;SDS011;2267;48.816;9.230;2022-12-10T04:00:00;25.50;;;23.03;;
4508;SDS011;2267;48.816;9.230;2022-12-10T04:02:28;27.20;;;24.80;;
4508;SDS011;2267;48.816;9.230;2022-12-10T04:04:55;26.47;;;24.07;;
4508;SDS011;2267;48.816;9.230;2022-12-10T04:07:22;26.87;;;24.50;;
4508;SDS011;2267;48.816;9.230;2022-12-10T04:09:49;27.17;;;24.60;;
4508;SDS011;2267;48.816;9.230;2022-12-10T04:12:15;28.90;;;26.20;;
4508;SDS011;2267;48.816;9.230;2022-12-10T04:14:42;28.30;;;25.70;;
4508;SDS011;2267;48.816;9.230;2022-12-10T04:17:27;26.97;;;24.57;;
4508;SDS011;2267;48.816;9.230;2022-12-10T04:19:54;26.83;;;24.57;;
4508;SDS011;2267;48.816;9.230;2022-12-10T04:22:21;26.77;;;24.40;;
4508;SDS011;2267;48.816;9.230;2022-12-10T04:25:07;26.33;;;24.00;;
4508;SDS011;2267;48.816;9.230;2022-12-10T04:27:55;29.07;;;26.20;;
4508;SDS011;2267;48.816;9.230;2022-12-10T04:30:22;27.03;;;24.63;;
4508;SDS011;2267;48.816;9.230;2022-12-10T04:32:49;28.40;;;25.77;;
4508;SDS011;2267;48.816;9.230;2022-12-10T04:35:16;26.87;;;24.33;;
4508;SDS011;2267;48.816;9.230;2022-12-10T04:37:42;27.10;;;24.50;;
4508;SDS011;2267;48.816;9.230;2022-12-10T04:40:09;28.60;;;26.10;;
4508;SDS011;2267;48.816;9.230;2022-12-10T04:42:37;27.90;;;25.40;;
4508;SDS011;2267;48.816;9.230;2022-12-10T04:45:03;27.50;;;25.00;;
4508;SDS011;2267;48.816;9.230;2022-12-10T04:47:31;26.50;;;24.10;;
4508;SDS011;2267;48.816;9.230;2022-12-10T04:49:57;25.87;;;23.77;;
4508;SDS011;2267;48.816;9.230;2022-12-10T04:52:24;27.53;;;25.13;;
4508;SDS011;2267;48.816;9.230;2022-12-10T04:54:51;27.30;;;24.80;;
4508;SDS011;2267;48.816;9.230;2022-12-10T04:57:17;28.00;;;25.40;;
4508;SDS011;2267;48.816;9.230;2022-12-10T04:59:44;27.83;;;25.20;;
4508;SDS011;2267;48.816;9.230;2022-12-10T05:02:11;29.67;;;26.93;;
4508;SDS011;2267;48.816;9.230;2022-12-10T05:04:38;27.23;;;24.70;;
4508;SDS011;2267;48.816;9.230;2022-12-10T05:07:04;29.97;;;27.27;;
4508;SDS011;2267;48.816;9.230;2022-12-10T05:09:31;29.03;;;26.53;;
4508;SDS011;2267;48.816;9.230;2022-12-10T05:11:58;28.07;;;25.47;;
4508;SDS011;2267;48.816;9.230;2022-12-10T05:14:25;27.83;;;25.40;;
4508;SDS011;2267;48.816;9.230;2022-12-10T05:16:51;26.60;;;24.03;;
4508;SDS011;2267;48.816;9.230;2022-12-10T05:19:18;28.33;;;25.73;;
4508;SDS011;2267;48.816;9.230;2022-12-10T05:21:46;29.60;;;26.80;;
4508;SDS011;2267;48.816;9.230;2022-12-10T05:24:36;27.90;;;25.40;;
4508;SDS011;2267;48.816;9.230;2022-12-10T05:27:03;29.00;;;26.50;;
4508;SDS011;2267;48.816;9.230;2022-12-10T05:29:31;27.70;;;25.27;;
4508;SDS011;2267;48.816;9.230;2022-12-10T05:32:02;29.00;;;26.50;;
4508;SDS011;2267;48.816;9.230;2022-12-10T05:34:30;28.80;;;26.13;;
4508;SDS011;2267;48.816;9.230;2022-12-10T05:36:58;27.17;;;24.80;;
4508;SDS011;2267;48.816;9.230;2022-12-10T05:39:24;26.73;;;24.23;;
4508;SDS011;2267;48.816;9.230;2022-12-10T05:41:51;28.87;;;26.30;;
4508;SDS011;2267;48.816;9.230;2022-12-10T05:44:18;28.93;;;26.30;;
4508;SDS011;2267;48.816;9.230;2022-12-10T05:46:44;31.20;;;28.47;;
4508;SDS011;2267;48.816;9.230;2022-12-10T05:49:11;28.90;;;26.20;;
4508;SDS011;2267;48.816;9.230;2022-12-10T05:51:38;28.23;;;25.63;;
4508;SDS011;2267;48.816;9.230;2022-12-10T05:54:06;29.10;;;26.33;;
4508;SDS011;2267;48.816;9.230;2022-12-10T05:56:35;28.33;;;25.97;;
4508;SDS011;2267;48.816;9.230;2022-12-10T05:59:02;28.00;;;25.50;;
4508;SDS011;2267;48.816;9.230;2022-12-10T06:01:31;29.30;;;26.63;;
4508;SDS011;2267;48.816;9.230;2022-12-10T06:03:59;27.67;;;25.17;;
4508;SDS011;2267;48.816;9.230;2022-12-10T06:06:28;28.47;;;25.87;;
4508;SDS011;2267;48.816;9.230;2022-12-10T06:08:56;30.50;;;27.70;;
4508;SDS011;2267;48.816;9.230;2022-12-10T06:11:24;27.50;;;25.10;;
4508;SDS011;2267;48.816;9.230;2022-12-10T06:13:52;28.60;;;26.10;;
4508;SDS011;2267;48.816;9.230;2022-12-10T06:16:22;28.17;;;25.67;;
4508;SDS011;2267;48.816;9.230;2022-12-10T06:18:50;28.47;;;25.93;;
4508;SDS011;2267;48.816;9.230;2022-12-10T06:21:17;27.90;;;25.50;;
4508;SDS011;2267;48.816;9.230;2022-12-10T06:23:45;28.73;;;26.23;;
4508;SDS011;2267;48.816;9.230;2022-12-10T06:26:13;28.17;;;25.60;;
4508;SDS011;2267;48.816;9.230;2022-12-10T06:28:43;28.73;;;26.17;;
4508;SDS011;2267;48.816;9.230;2022-12-10T06:31:11;28.07;;;25.67;;
4508;SDS011;2267;48.816;9.230;2022-12-10T06:33:38;29.13;;;26.33;;
4508;SDS011;2267;48.816;9.230;2022-12-10T06:36:05;28.40;;;25.93;;
4508;SDS011;2267;48.816;9.230;2022-12-10T06:38:34;25.53;;;23.17;;
4508;SDS011;2267;48.816;9.230;2022-12-10T06:41:04;28.60;;;26.00;;
4508;SDS011;2267;48.816;9.230;2022-12-10T06:43:32;27.40;;;24.90;;
4508;SDS011;2267;48.816;9.230;2022-12-10T06:46:03;28.20;;;25.60;;
4508;SDS011;2267;48.816;9.230;2022-12-10T06:48:32;29.77;;;27.07;;
4508;SDS011;2267;48.816;9.230;2022-12-10T06:50:59;28.07;;;25.67;;
4508;SDS011;2267;48.816;9.230;2022-12-10T06:53:25;27.90;;;25.27;;
4508;SDS011;2267;48.816;9.230;2022-12-10T06:55:52;27.80;;;25.40;;
4508;SDS011;2267;48.816;9.230;2022-12-10T06:58:19;27.80;;;25.20;;
4508;SDS011;2267;48.816;9.230;2022-12-10T07:00:45;27.20;;;24.70;;
4508;SDS011;2267;48.816;9.230;2022-12-10T07:03:12;26.37;;;23.97;;
4508;SDS011;2267;48.816;9.230;2022-12-10T07:05:39;26.60;;;24.20;;
4508;SDS011;2267;48.816;9.230;2022-12-10T07:08:06;28.17;;;25.67;;
4508;SDS011;2267;48.816;9.230;2022-12-10T07:10:32;29.70;;;27.10;;
4508;SDS011;2267;48.816;9.230;2022-12-10T07:12:59;29.60;;;27.17;;
4508;SDS011;2267;48.816;9.230;2022-12-10T07:15:26;28.17;;;25.67;;
4508;SDS011;2267;48.816;9.230;2022-12-10T07:17:54;28.80;;;26.20;;
4508;SDS011;2267;48.816;9.230;2022-12-10T07:20:21;30.50;;;27.80;;
4508;SDS011;2267;48.816;9.230;2022-12-10T07:22:48;28.80;;;26.20;;
4508;SDS011;2267;48.816;9.230;2022-12-10T07:25:14;28.77;;;26.10;;
4508;SDS011;2267;48.816;9.230;2022-12-10T07:27:41;28.77;;;26.07;;
4508;SDS011;2267;48.816;9.230;2022-12-10T07:30:08;26.50;;;24.20;;
4508;SDS011;2267;48.816;9.230;2022-12-10T07:32:36;28.63;;;26.10;;
4508;SDS011;2267;48.816;9.230;2022-12-10T07:35:03;29.10;;;26.50;;
4508;SDS011;2267;48.816;9.230;2022-12-10T07:37:30;30.37;;;27.67;;
4508;SDS011;2267;48.816;9.230;2022-12-10T07:39:56;28.07;;;25.27;;
4508;SDS011;2267;48.816;9.230;2022-12-10T07:42:23;25.53;;;23.33;;
4508;SDS011;2267;48.816;9.230;2022-12-10T07:44:50;27.30;;;24.80;;
4508;SDS011;2267;48.816;9.230;2022-12-10T07:47:17;30.57;;;27.97;;
4508;SDS011;2267;48.816;9.230;2022-12-10T07:49:44;30.13;;;27.50;;
4508;SDS011;2267;48.816;9.230;2022-12-10T07:52:10;30.53;;;27.73;;
4508;SDS011;2267;48.816;9.230;2022-12-10T07:54:37;29.27;;;26.67;;
4508;SDS011;2267;48.816;9.230;2022-12-10T07:57:04;28.00;;;25.40;;
4508;SDS011;2267;48.816;9.230;2022-12-10T07:59:31;27.80;;;25.30;;
4508;SDS011;2267;48.816;9.230;2022-12-10T08:01:58;29.33;;;26.73;;
4508;SDS011;2267;48.816;9.230;2022-12-10T08:04:32;28.43;;;26.03;;
4508;SDS011;2267;48.816;9.230;2022-12-10T08:06:59;29.23;;;26.53;;
4508;SDS011;2267;48.816;9.230;2022-12-10T08:09:26;28.73;;;26.13;;
4508;SDS011;2267;48.816;9.230;2022-12-10T08:11:52;29.47;;;26.77;;
4508;SDS011;2267;48.816;9.230;2022-12-10T08:14:19;26.47;;;24.07;;
4508;SDS011;2267;48.816;9.230;2022-12-10T08:16:46;29.37;;;26.77;;
4508;SDS011;2267;48.816;9.230;2022-12-10T08:19:13;28.60;;;26.00;;
4508;SDS011;2267;48.816;9.230;2022-12-10T08:21:47;27.03;;;24.47;;
4508;SDS011;2267;48.816;9.230;2022-12-10T08:24:13;29.17;;;26.33;;
4508;SDS011;2267;48.816;9.230;2022-12-10T08:26:40;29.80;;;27.07;;
4508;SDS011;2267;48.816;9.230;2022-12-10T08:29:07;29.67;;;26.87;;
4508;SDS011;2267;48.816;9.230;2022-12-10T08:31:34;27.90;;;25.40;;
4508;SDS011;2267;48.816;9.230;2022-12-10T08:34:03;29.60;;;26.70;;
4508;SDS011;2267;48.816;9.230;2022-12-10T08:36:31;28.73;;;26.17;;
4508;SDS011;2267;48.816;9.230;2022-12-10T08:38:58;28.17;;;25.47;;
4508;SDS011;2267;48.816;9.230;2022-12-10T08:41:25;27.53;;;24.90;;
4508;SDS011;2267;48.816;9.230;2022-12-10T08:43:52;28.10;;;25.57;;
4508;SDS011;2267;48.816;9.230;2022-12-10T08:46:19;27.80;;;25.37;;
4508;SDS011;2267;48.816;9.230;2022-12-10T08:48:47;30.57;;;27.87;;
4508;SDS011;2267;48.816;9.230;2022-12-10T08:51:15;29.43;;;26.77;;
4508;SDS011;2267;48.816;9.230;2022-12-10T08:53:43;29.30;;;26.67;;
4508;SDS011;2267;48.816;9.230;2022-12-10T08:56:11;28.77;;;26.37;;
4508;SDS011;2267;48.816;9.230;2022-12-10T08:58:38;28.37;;;25.87;;
4508;SDS011;2267;48.816;9.230;2022-12-10T09:01:10;29.93;;;27.20;;
4508;SDS011;2267;48.816;9.230;2022-12-10T09:03:38;25.90;;;23.70;;
4508;SDS011;2267;48.816;9.230;2022-12-10T09:06:06;31.00;;;28.23;;
4508;SDS011;2267;48.816;9.230;2022-12-10T09:08:35;30.97;;;28.10;;
4508;SDS011;2267;48.816;9.230;2022-12-10T09:11:06;29.57;;;26.93;;
4508;SDS011;2267;48.816;9.230;2022-12-10T09:13:34;29.83;;;26.90;;
4508;SDS011;2267;48.816;9.230;2022-12-10T09:16:01;28.53;;;26.03;;
4508;SDS011;2267;48.816;9.230;2022-12-10T09:18:29;28.60;;;26.00;;
4508;SDS011;2267;48.816;9.230;2022-12-10T09:20:55;29.10;;;26.50;;
4508;SDS011;2267;48.816;9.230;2022-12-10T09:23:22;28.70;;;26.20;;
4508;SDS011;2267;48.816;9.230;2022-12-10T09:25:49;29.37;;;26.77;;
4508;SDS011;2267;48.816;9.230;2022-12-10T09:28:16;27.80;;;25.30;;
4508;SDS011;2267;48.816;9.230;2022-12-10T09:30:43;30.53;;;27.53;;
4508;SDS011;2267;48.816;9.230;2022-12-10T09:33:10;31.27;;;28.47;;
4508;SDS011;2267;48.816;9.230;2022-12-10T09:35:39;28.70;;;26.20;;
4508;SDS011;2267;48.816;9.230;2022-12-10T09:38:07;28.37;;;25.77;;
4508;SDS011;2267;48.816;9.230;2022-12-10T09:41:20;29.50;;;26.90;;
4508;SDS011;2267;48.816;9.230;2022-12-10T09:46:46;28.10;;;25.60;;
4508;SDS011;2267;48.816;9.230;2022-12-10T09:52:17;26.63;;;24.20;;
4508;SDS011;2267;48.816;9.230;2022-12-10T09:57:26;29.50;;;26.90;;
4508;SDS011;2267;48.816;9.230;2022-12-10T09:59:58;27.57;;;25.07;;
4508;SDS011;2267;48.816;9.230;2022-12-10T10:02:30;29.83;;;27.10;;
4508;SDS011;2267;48.816;9.230;2022-12-10T10:07:34;28.40;;;25.87;;
4508;SDS011;2267;48.816;9.230;2022-12-10T10:10:07;25.93;;;23.63;;
4508;SDS011;2267;48.816;9.230;2022-12-10T10:12:52;30.30;;;27.53;;
4508;SDS011;2267;48.816;9.230;2022-12-10T10:15:24;26.60;;;24.30;;
4508;SDS011;2267;48.816;9.230;2022-12-10T10:17:56;27.80;;;25.20;;
4508;SDS011;2267;48.816;9.230;2022-12-10T10:20:28;27.97;;;25.47;;
4508;SDS011;2267;48.816;9.230;2022-12-10T10:22:56;26.03;;;23.83;;
4508;SDS011;2267;48.816;9.230;2022-12-10T10:25:24;27.20;;;24.80;;
4508;SDS011;2267;48.816;9.230;2022-12-10T10:27:52;27.87;;;25.47;;
4508;SDS011;2267;48.816;9.230;2022-12-10T10:30:20;26.00;;;23.80;;
4508;SDS011;2267;48.816;9.230;2022-12-10T10:32:53;25.30;;;23.10;;
4508;SDS011;2267;48.816;9.230;2022-12-10T10:35:22;28.53;;;25.83;;
4508;SDS011;2267;48.816;9.230;2022-12-10T10:38:04;26.53;;;24.17;;
4508;SDS011;2267;48.816;9.230;2022-12-10T10:40:41;25.90;;;23.50;;
4508;SDS011;2267;48.816;9.230;2022-12-10T10:43:20;26.57;;;24.17;;
4508;SDS011;2267;48.816;9.230;2022-12-10T10:46:23;27.57;;;25.17;;
4508;SDS011;2267;48.816;9.230;2022-12-10T10:48:44;26.03;;;23.77;;
4508;SDS011;2267;48.816;9.230;2022-12-10T10:56:06;29.43;;;27.00;;
4508;SDS011;2267;48.816;9.230;2022-12-10T10:58:35;29.27;;;26.77;;
4508;SDS011;2267;48.816;9.230;2022-12-10T11:01:10;28.70;;;25.97;;
4508;SDS011;2267;48.816;9.230;2022-12-10T11:03:44;28.53;;;26.10;;
4508;SDS011;2267;48.816;9.230;2022-12-10T11:06:16;26.33;;;24.03;;
4508;SDS011;2267;48.816;9.230;2022-12-10T11:08:44;29.60;;;27.00;;
4508;SDS011;2267;48.816;9.230;2022-12-10T11:11:17;27.87;;;25.33;;
4508;SDS011;2267;48.816;9.230;2022-12-10T11:13:46;26.17;;;23.57;;
4508;SDS011;2267;48.816;9.230;2022-12-10T11:16:21;26.87;;;24.53;;
4508;SDS011;2267;48.816;9.230;2022-12-10T11:18:57;25.57;;;23.23;;
4508;SDS011;2267;48.816;9.230;2022-12-10T11:21:32;27.30;;;24.90;;
4508;SDS011;2267;48.816;9.230;2022-12-10T11:24:03;28.30;;;25.60;;
4508;SDS011;2267;48.816;9.230;2022-12-10T11:26:40;27.97;;;25.53;;
4508;SDS011;2267;48.816;9.230;2022-12-10T11:36:42;27.33;;;24.80;;
4508;SDS011;2267;48.816;9.230;2022-12-10T11:39:49;25.73;;;23.43;;
4508;SDS011;2267;48.816;9.230;2022-12-10T11:50:11;26.37;;;24.17;;
4508;SDS011;2267;48.816;9.230;2022-12-10T11:52:55;25.37;;;23.20;;
4508;SDS011;2267;48.816;9.230;2022-12-10T12:00:23;25.17;;;22.93;;
4508;SDS011;2267;48.816;9.230;2022-12-10T12:08:52;26.50;;;24.10;;
4508;SDS011;2267;48.816;9.230;2022-12-10T12:14:35;28.33;;;25.70;;
4508;SDS011;2267;48.816;9.230;2022-12-10T12:20:02;23.23;;;21.23;;
4508;SDS011;2267;48.816;9.230;2022-12-10T12:22:39;26.30;;;23.90;;
4508;SDS011;2267;48.816;9.230;2022-12-10T12:28:04;22.13;;;20.20;;
4508;SDS011;2267;48.816;9.230;2022-12-10T12:30:39;24.33;;;22.23;;
4508;SDS011;2267;48.816;9.230;2022-12-10T12:33:20;22.93;;;20.93;;
4508;SDS011;2267;48.816;9.230;2022-12-10T12:39:01;24.13;;;21.93;;
4508;SDS011;2267;48.816;9.230;2022-12-10T12:41:51;23.07;;;20.97;;
4508;SDS011;2267;48.816;9.230;2022-12-10T12:44:29;24.20;;;22.00;;
4508;SDS011;2267;48.816;9.230;2022-12-10T12:47:18;24.20;;;22.00;;
4508;SDS011;2267;48.816;9.230;2022-12-10T12:49:55;25.10;;;22.90;;
4508;SDS011;2267;48.816;9.230;2022-12-10T12:55:19;25.03;;;22.60;;
4508;SDS011;2267;48.816;9.230;2022-12-10T13:00:46;20.27;;;18.17;;
4508;SDS011;2267;48.816;9.230;2022-12-10T13:03:32;24.60;;;22.40;;
4508;SDS011;2267;48.816;9.230;2022-12-10T13:06:12;23.87;;;21.77;;
4508;SDS011;2267;48.816;9.230;2022-12-10T13:09:31;22.17;;;20.27;;
4508;SDS011;2267;48.816;9.230;2022-12-10T13:11:39;22.50;;;20.50;;
4508;SDS011;2267;48.816;9.230;2022-12-10T13:24:44;21.73;;;19.90;;
4508;SDS011;2267;48.816;9.230;2022-12-10T13:27:23;24.10;;;22.00;;
4508;SDS011;2267;48.816;9.230;2022-12-10T13:37:36;22.57;;;20.57;;
4508;SDS011;2267;48.816;9.230;2022-12-10T13:40:23;21.70;;;19.90;;
4508;SDS011;2267;48.816;9.230;2022-12-10T13:42:57;22.87;;;20.87;;
4508;SDS011;2267;48.816;9.230;2022-12-10T13:49:20;25.20;;;22.80;;
4508;SDS011;2267;48.816;9.230;2022-12-10T14:00:13;28.10;;;25.60;;
4508;SDS011;2267;48.816;9.230;2022-12-10T14:08:28;26.10;;;23.70;;
4508;SDS011;2267;48.816;9.230;2022-12-10T14:10:59;29.17;;;26.57;;
4508;SDS011;2267;48.816;9.230;2022-12-10T14:13:32;28.07;;;25.50;;
4508;SDS011;2267;48.816;9.230;2022-12-10T14:16:05;24.77;;;22.57;;
4508;SDS011;2267;48.816;9.230;2022-12-10T14:18:36;26.53;;;24.13;;
4508;SDS011;2267;48.816;9.230;2022-12-10T14:21:05;25.40;;;23.10;;
4508;SDS011;2267;48.816;9.230;2022-12-10T14:23:33;27.70;;;25.10;;
4508;SDS011;2267;48.816;9.230;2022-12-10T14:26:16;27.27;;;24.77;;
4508;SDS011;2267;48.816;9.230;2022-12-10T14:29:28;27.33;;;24.90;;
4508;SDS011;2267;48.816;9.230;2022-12-10T14:31:50;26.50;;;24.07;;
4508;SDS011;2267;48.816;9.230;2022-12-10T14:34:18;27.23;;;24.83;;
4508;SDS011;2267;48.816;9.230;2022-12-10T14:36:50;26.53;;;24.13;;
4508;SDS011;2267;48.816;9.230;2022-12-10T14:39:30;27.50;;;24.90;;
4508;SDS011;2267;48.816;9.230;2022-12-10T14:42:00;27.13;;;24.60;;
4508;SDS011;2267;48.816;9.230;2022-12-10T14:44:29;27.20;;;24.77;;
4508;SDS011;2267;48.816;9.230;2022-12-10T14:47:04;28.67;;;25.87;;
4508;SDS011;2267;48.816;9.230;2022-12-10T14:49:46;27.70;;;25.20;;
4508;SDS011;2267;48.816;9.230;2022-12-10T14:52:16;25.77;;;23.30;;
4508;SDS011;2267;48.816;9.230;2022-12-10T14:54:49;25.50;;;23.30;;
4508;SDS011;2267;48.816;9.230;2022-12-10T15:00:05;26.87;;;24.53;;
4508;SDS011;2267;48.816;9.230;2022-12-10T15:02:53;27.30;;;24.80;;
4508;SDS011;2267;48.816;9.230;2022-12-10T15:05:26;26.10;;;23.70;;
4508;SDS011;2267;48.816;9.230;2022-12-10T15:07:59;28.53;;;25.87;;
4508;SDS011;2267;48.816;9.230;2022-12-10T15:10:38;26.53;;;24.17;;
4508;SDS011;2267;48.816;9.230;2022-12-10T15:13:12;25.07;;;22.77;;
4508;SDS011;2267;48.816;9.230;2022-12-10T15:15:49;24.53;;;22.30;;
4508;SDS011;2267;48.816;9.230;2022-12-10T15:18:19;25.97;;;23.60;;
4508;SDS011;2267;48.816;9.230;2022-12-10T15:21:10;27.80;;;25.10;;
4508;SDS011;2267;48.816;9.230;2022-12-10T15:23:44;27.27;;;24.70;;
4508;SDS011;2267;48.816;9.230;2022-12-10T15:26:15;27.87;;;25.37;;
4508;SDS011;2267;48.816;9.230;2022-12-10T15:28:47;26.30;;;23.67;;
4508;SDS011;2267;48.816;9.230;2022-12-10T15:33:58;26.30;;;23.83;;
4508;SDS011;2267;48.816;9.230;2022-12-10T15:39:12;27.33;;;24.80;;
4508;SDS011;2267;48.816;9.230;2022-12-10T15:41:47;28.20;;;25.60;;
4508;SDS011;2267;48.816;9.230;2022-12-10T15:46:48;26.50;;;24.10;;
4508;SDS011;2267;48.816;9.230;2022-12-10T15:49:24;28.57;;;25.83;;
4508;SDS011;2267;48.816;9.230;2022-12-10T15:51:51;27.90;;;25.30;;
4508;SDS011;2267;48.816;9.230;2022-12-10T15:57:15;29.10;;;26.40;;
4508;SDS011;2267;48.816;9.230;2022-12-10T15:59:47;24.53;;;22.20;;
4508;SDS011;2267;48.816;9.230;2022-12-10T16:05:23;32.57;;;29.53;;
4508;SDS011;2267;48.816;9.230;2022-12-10T16:07:53;27.30;;;24.77;;
4508;SDS011;2267;48.816;9.230;2022-12-10T16:10:22;26.30;;;24.00;;
4508;SDS011;2267;48.816;9.230;2022-12-10T16:12:58;28.50;;;25.93;;
4508;SDS011;2267;48.816;9.230;2022-12-10T16:15:29;26.67;;;24.23;;
4508;SDS011;2267;48.816;9.230;2022-12-10T16:18:04;27.50;;;24.93;;
4508;SDS011;2267;48.816;9.230;2022-12-10T16:20:36;25.97;;;23.70;;
4508;SDS011;2267;48.816;9.230;2022-12-10T16:23:03;25.00;;;22.70;;
4508;SDS011;2267;48.816;9.230;2022-12-10T16:25:32;24.97;;;22.77;;
4508;SDS011;2267;48.816;9.230;2022-12-10T16:28:01;25.10;;;22.90;;
4508;SDS011;2267;48.816;9.230;2022-12-10T16:33:09;27.47;;;25.07;;
4508;SDS011;2267;48.816;9.230;2022-12-10T16:35:35;26.77;;;24.37;;
4508;SDS011;2267;48.816;9.230;2022-12-10T16:38:02;28.43;;;25.83;;
4508;SDS011;2267;48.816;9.230;2022-12-10T16:40:36;26.97;;;24.47;;
4508;SDS011;2267;48.816;9.230;2022-12-10T16:43:03;25.33;;;23.03;;
4508;SDS011;2267;48.816;9.230;2022-12-10T16:45:33;23.83;;;21.63;;
4508;SDS011;2267;48.816;9.230;2022-12-10T16:48:02;25.20;;;23.00;;
4508;SDS011;2267;48.816;9.230;2022-12-10T16:50:30;26.80;;;24.30;;
4508;SDS011;2267;48.816;9.230;2022-12-10T16:52:58;25.73;;;23.33;;
4508;SDS011;2267;48.816;9.230;2022-12-10T16:55:30;24.87;;;22.67;;
4508;SDS011;2267;48.816;9.230;2022-12-10T16:57:56;23.63;;;21.53;;
4508;SDS011;2267;48.816;9.230;2022-12-10T17:00:24;24.33;;;22.13;;
4508;SDS011;2267;48.816;9.230;2022-12-10T17:02:52;23.63;;;21.50;;
4508;SDS011;2267;48.816;9.230;2022-12-10T17:05:24;24.73;;;22.47;;
4508;SDS011;2267;48.816;9.230;2022-12-10T17:07:52;19.53;;;17.60;;
4508;SDS011;2267;48.816;9.230;2022-12-10T17:10:19;23.60;;;21.20;;
4508;SDS011;2267;48.816;9.230;2022-12-10T17:13:13;23.43;;;21.13;;
4508;SDS011;2267;48.816;9.230;2022-12-10T17:15:41;23.33;;;21.33;;
4508;SDS011;2267;48.816;9.230;2022-12-10T17:18:15;25.13;;;22.83;;
4508;SDS011;2267;48.816;9.230;2022-12-10T17:20:44;25.37;;;23.17;;
4508;SDS011;2267;48.816;9.230;2022-12-10T17:23:12;23.07;;;21.07;;